Time,TemperatureF,DewpointF,PressureIn,WindDirection,WindDirectionDegrees,WindSpeedMPH,WindSpeedGustMPH,Humidity,HourlyPrecipIn,Conditions,Clouds,dailyrainin,SoftwareType,DateUTC
2013-10-26 00:00:00,55.3,38.0,30.05,WSW,239,0.0,0.0,52,0.00,,---,0.00,VWS V12.07,2013-10-26 07:00:00,
2013-10-26 00:01:00,55.0,37.9,30.05,WSW,239,0.0,0.0,52,0.00,,---,0.00,VWS V12.07,2013-10-26 07:01:00,
2013-10-26 00:06:00,55.2,38.0,30.05,WSW,239,0.0,0.0,52,0.00,,---,0.00,VWS V12.07,2013-10-26 07:06:00,
2013-10-26 00:11:00,55.2,38.1,30.05,WSW,239,0.0,0.0,52,0.00,,---,0.00,VWS V12.07,2013-10-26 07:11:00,
2013-10-26 00:16:00,55.0,38.2,30.05,WSW,239,0.0,0.0,53,0.00,,---,0.00,VWS V12.07,2013-10-26 07:16:00,
2013-10-26 00:21:00,54.7,38.1,30.05,WSW,239,0.0,0.0,53,0.00,,---,0.00,VWS V12.07,2013-10-26 07:21:00,
2013-10-26 00:26:00,54.5,38.0,30.05,WSW,239,0.0,0.0,54,0.00,,---,0.00,VWS V12.07,2013-10-26 07:26:00,
2013-10-26 00:30:00,54.5,38.0,30.05,WSW,239,0.0,0.0,54,0.00,,---,0.00,VWS V12.07,2013-10-26 07:30:00,
2013-10-26 00:31:00,54.1,37.9,30.05,WSW,239,0.0,0.0,54,0.00,,---,0.00,VWS V12.07,2013-10-26 07:31:00,
2013-10-26 00:36:00,53.7,37.9,30.05,WSW,239,0.0,0.0,55,0.00,,---,0.00,VWS V12.07,2013-10-26 07:36:00,
2013-10-26 00:41:00,53.6,38.1,30.05,WSW,239,0.0,0.0,56,0.00,,---,0.00,VWS V12.07,2013-10-26 07:41:00,
2013-10-26 00:46:00,53.3,37.9,30.05,WSW,239,0.0,0.0,56,0.00,,---,0.00,VWS V12.07,2013-10-26 07:46:00,
2013-10-26 00:51:00,53.2,38.0,30.05,WSW,239,0.0,0.0,56,0.00,,---,0.00,VWS V12.07,2013-10-26 07:51:00,
2013-10-26 00:56:00,53.2,38.1,30.05,WSW,239,0.0,0.0,56,0.00,,---,0.00,VWS V12.07,2013-10-26 07:56:00,
2013-10-26 01:00:00,53.1,38.0,30.05,WSW,239,0.0,0.0,56,0.00,,---,0.00,VWS V12.07,2013-10-26 08:00:00,
2013-10-26 01:01:00,53.2,38.2,30.05,WSW,239,0.0,0.0,56,0.00,,---,0.00,VWS V12.07,2013-10-26 08:01:00,
2013-10-26 01:06:00,53.3,38.1,30.05,WSW,239,0.0,0.0,56,0.00,,---,0.00,VWS V12.07,2013-10-26 08:06:00,
2013-10-26 01:11:00,53.5,38.3,30.06,WSW,239,0.0,0.0,56,0.00,,---,0.00,VWS V12.07,2013-10-26 08:11:00,
2013-10-26 01:16:00,53.3,38.2,30.05,WSW,239,0.0,0.0,56,0.00,,---,0.00,VWS V12.07,2013-10-26 08:16:00,
2013-10-26 01:21:00,53.2,38.0,30.06,WSW,239,0.0,0.0,56,0.00,,---,0.00,VWS V12.07,2013-10-26 08:21:00,
2013-10-26 01:26:00,53.1,38.2,30.06,WSW,239,0.0,0.0,57,0.00,,---,0.00,VWS V12.07,2013-10-26 08:26:00,
2013-10-26 01:30:00,53.2,38.3,30.06,WSW,239,0.0,0.0,57,0.00,,---,0.00,VWS V12.07,2013-10-26 08:30:00,
2013-10-26 01:31:00,52.9,38.1,30.06,WSW,239,0.0,0.0,57,0.00,,---,0.00,VWS V12.07,2013-10-26 08:31:00,
2013-10-26 01:36:00,52.6,37.9,30.06,WSW,239,0.0,0.0,57,0.00,,---,0.00,VWS V12.07,2013-10-26 08:36:00,
2013-10-26 01:41:00,52.3,37.8,30.06,WSW,239,0.0,0.0,58,0.00,,---,0.00,VWS V12.07,2013-10-26 08:41:00,
2013-10-26 01:46:00,52.1,37.8,30.06,WSW,239,0.0,0.0,58,0.00,,---,0.00,VWS V12.07,2013-10-26 08:46:00,
2013-10-26 01:51:00,51.8,37.6,30.06,WSW,239,0.0,0.0,58,0.00,,---,0.00,VWS V12.07,2013-10-26 08:51:00,
2013-10-26 01:56:00,51.7,37.7,30.06,WSW,239,0.0,0.0,59,0.00,,---,0.00,VWS V12.07,2013-10-26 08:56:00,
2013-10-26 02:00:00,51.7,37.7,30.06,WSW,239,0.0,0.0,59,0.00,,---,0.00,VWS V12.07,2013-10-26 09:00:00,
2013-10-26 02:01:00,51.3,37.5,30.06,WSW,239,0.0,0.0,59,0.00,,---,0.00,VWS V12.07,2013-10-26 09:01:00,
2013-10-26 02:06:00,51.4,37.7,30.06,WSW,239,0.0,0.0,59,0.00,,---,0.00,VWS V12.07,2013-10-26 09:06:00,
2013-10-26 02:11:00,51.2,37.5,30.06,WSW,239,0.0,0.0,59,0.00,,---,0.00,VWS V12.07,2013-10-26 09:11:00,
2013-10-26 02:16:00,51.1,37.6,30.06,WSW,239,0.0,0.0,60,0.00,,---,0.00,VWS V12.07,2013-10-26 09:16:00,
2013-10-26 02:21:00,50.8,37.5,30.06,WSW,239,0.0,0.0,60,0.00,,---,0.00,VWS V12.07,2013-10-26 09:21:00,
2013-10-26 02:26:00,51.0,37.8,30.07,WSW,239,0.0,0.0,60,0.00,,---,0.00,VWS V12.07,2013-10-26 09:26:00,
2013-10-26 02:30:00,51.0,37.8,30.07,WSW,239,0.0,0.0,60,0.00,,---,0.00,VWS V12.07,2013-10-26 09:30:00,
2013-10-26 02:31:00,51.1,37.8,30.07,WSW,239,0.0,0.0,60,0.00,,---,0.00,VWS V12.07,2013-10-26 09:31:00,
2013-10-26 02:36:00,50.8,37.5,30.07,WSW,239,0.0,0.0,60,0.00,,---,0.00,VWS V12.07,2013-10-26 09:36:00,
2013-10-26 02:41:00,50.7,37.6,30.07,WSW,239,0.0,0.0,61,0.00,,---,0.00,VWS V12.07,2013-10-26 09:41:00,
2013-10-26 02:46:00,50.4,37.4,30.07,WSW,239,0.0,0.0,61,0.00,,---,0.00,VWS V12.07,2013-10-26 09:46:00,
2013-10-26 02:52:00,50.4,37.5,30.07,WSW,239,0.0,0.0,61,0.00,,---,0.00,VWS V12.07,2013-10-26 09:52:00,
2013-10-26 02:57:00,50.3,37.4,30.06,WSW,239,0.0,0.0,61,0.00,,---,0.00,VWS V12.07,2013-10-26 09:57:00,
2013-10-26 03:00:00,50.3,37.4,30.06,WSW,239,0.0,0.0,61,0.00,,---,0.00,VWS V12.07,2013-10-26 10:00:00,
2013-10-26 03:02:00,50.4,37.6,30.07,WSW,239,0.0,0.0,61,0.00,,---,0.00,VWS V12.07,2013-10-26 10:02:00,
2013-10-26 03:07:00,50.4,37.6,30.07,WSW,239,0.0,0.0,61,0.00,,---,0.00,VWS V12.07,2013-10-26 10:07:00,
2013-10-26 03:12:00,50.2,37.5,30.07,WSW,239,0.0,0.0,61,0.00,,---,0.00,VWS V12.07,2013-10-26 10:12:00,
2013-10-26 03:17:00,50.0,36.9,30.07,WSW,239,0.0,0.0,60,0.00,,---,0.00,VWS V12.07,2013-10-26 10:17:00,
2013-10-26 03:22:00,49.9,36.8,30.07,WSW,239,0.0,0.0,61,0.00,,---,0.00,VWS V12.07,2013-10-26 10:22:00,
2013-10-26 03:27:00,49.9,36.9,30.07,WSW,239,0.0,0.0,61,0.00,,---,0.00,VWS V12.07,2013-10-26 10:27:00,
2013-10-26 03:30:00,49.9,36.9,30.07,WSW,239,0.0,0.0,61,0.00,,---,0.00,VWS V12.07,2013-10-26 10:30:00,
2013-10-26 03:32:00,50.4,37.3,30.06,WSW,239,0.0,0.0,61,0.00,,---,0.00,VWS V12.07,2013-10-26 10:32:00,
2013-10-26 03:37:00,50.6,37.2,30.07,WSW,239,0.0,0.0,60,0.00,,---,0.00,VWS V12.07,2013-10-26 10:37:00,
2013-10-26 03:42:00,51.1,37.5,30.06,WSW,239,0.0,0.0,59,0.00,,---,0.00,VWS V12.07,2013-10-26 10:42:00,
2013-10-26 03:47:00,51.6,37.6,30.07,WSW,239,0.0,0.0,59,0.00,,---,0.00,VWS V12.07,2013-10-26 10:47:00,
2013-10-26 03:52:00,51.7,37.5,30.07,WSW,239,0.0,0.0,58,0.00,,---,0.00,VWS V12.07,2013-10-26 10:52:00,
2013-10-26 03:57:00,51.8,37.5,30.07,WSW,239,0.0,0.0,58,0.00,,---,0.00,VWS V12.07,2013-10-26 10:57:00,
2013-10-26 04:00:00,51.8,37.5,30.07,WSW,239,0.0,0.0,58,0.00,,---,0.00,VWS V12.07,2013-10-26 11:00:00,
2013-10-26 04:02:00,51.6,37.4,30.07,WSW,239,0.0,0.0,58,0.00,,---,0.00,VWS V12.07,2013-10-26 11:02:00,
2013-10-26 04:07:00,51.3,37.3,30.07,WSW,239,0.0,0.0,59,0.00,,---,0.00,VWS V12.07,2013-10-26 11:07:00,
2013-10-26 04:12:00,51.1,37.2,30.07,WSW,239,0.0,0.0,59,0.00,,---,0.00,VWS V12.07,2013-10-26 11:12:00,
2013-10-26 04:17:00,51.1,37.2,30.07,WSW,239,0.0,0.0,59,0.00,,---,0.00,VWS V12.07,2013-10-26 11:17:00,
2013-10-26 04:22:00,51.3,37.1,30.07,NW,315,2.7,3.2,58,0.00,,---,0.00,VWS V12.07,2013-10-26 11:22:00,
2013-10-26 04:27:00,51.7,37.1,30.07,WNW,300,0.0,3.2,57,0.00,,---,0.00,VWS V12.07,2013-10-26 11:27:00,
2013-10-26 04:30:00,51.7,37.1,30.07,WNW,300,0.0,3.2,57,0.00,,---,0.00,VWS V12.07,2013-10-26 11:30:00,
2013-10-26 04:32:00,52.0,37.2,30.07,WNW,300,0.0,3.2,57,0.00,,---,0.00,VWS V12.07,2013-10-26 11:32:00,
2013-10-26 04:37:00,51.9,37.2,30.08,WNW,300,0.0,3.2,57,0.00,,---,0.00,VWS V12.07,2013-10-26 11:37:00,
2013-10-26 04:42:00,51.8,37.2,30.08,WNW,300,0.0,3.2,57,0.00,,---,0.00,VWS V12.07,2013-10-26 11:42:00,
2013-10-26 04:47:00,51.5,37.3,30.08,WNW,300,0.0,0.0,58,0.00,,---,0.00,VWS V12.07,2013-10-26 11:47:00,
2013-10-26 04:52:00,51.0,37.2,30.08,WNW,300,0.0,0.0,59,0.00,,---,0.00,VWS V12.07,2013-10-26 11:52:00,
2013-10-26 04:57:00,50.7,37.1,30.08,WNW,300,0.0,0.0,59,0.00,,---,0.00,VWS V12.07,2013-10-26 11:57:00,
2013-10-26 05:00:00,50.7,37.1,30.08,WNW,300,0.0,0.0,59,0.00,,---,0.00,VWS V12.07,2013-10-26 12:00:00,
2013-10-26 05:02:00,50.6,37.1,30.08,WNW,300,0.0,0.0,60,0.00,,---,0.00,VWS V12.07,2013-10-26 12:02:00,
2013-10-26 05:07:00,50.4,36.9,30.08,WNW,300,0.0,0.0,60,0.00,,---,0.00,VWS V12.07,2013-10-26 12:07:00,
2013-10-26 05:12:00,50.3,36.9,30.08,WNW,300,0.0,0.0,60,0.00,,---,0.00,VWS V12.07,2013-10-26 12:12:00,
2013-10-26 05:17:00,50.4,36.9,30.08,WNW,300,0.0,0.0,60,0.00,,---,0.00,VWS V12.07,2013-10-26 12:17:00,
2013-10-26 05:22:00,50.5,36.8,30.08,WNW,300,0.0,0.0,59,0.00,,---,0.00,VWS V12.07,2013-10-26 12:22:00,
2013-10-26 05:27:00,50.6,36.6,30.08,WNW,300,0.0,0.0,59,0.00,,---,0.00,VWS V12.07,2013-10-26 12:27:00,
2013-10-26 05:30:00,50.6,36.7,30.08,WNW,300,0.0,0.0,59,0.00,,---,0.00,VWS V12.07,2013-10-26 12:30:00,
2013-10-26 05:32:00,50.8,36.7,30.08,WNW,300,0.0,0.0,58,0.00,,---,0.00,VWS V12.07,2013-10-26 12:32:00,
2013-10-26 05:37:00,50.8,36.5,30.08,WNW,300,0.0,0.0,58,0.00,,---,0.00,VWS V12.07,2013-10-26 12:37:00,
2013-10-26 05:42:00,50.8,36.3,30.08,WNW,300,0.0,0.0,58,0.00,,---,0.00,VWS V12.07,2013-10-26 12:42:00,
2013-10-26 05:47:00,51.0,36.4,30.08,WNW,300,0.0,0.0,57,0.00,,---,0.00,VWS V12.07,2013-10-26 12:47:00,
2013-10-26 05:52:00,51.0,36.2,30.08,NW,318,0.0,2.3,57,0.00,,---,0.00,VWS V12.07,2013-10-26 12:52:00,
2013-10-26 05:57:00,51.3,36.4,30.08,NW,318,0.0,2.3,57,0.00,,---,0.00,VWS V12.07,2013-10-26 12:57:00,
2013-10-26 06:00:00,51.3,36.5,30.08,NW,318,0.0,2.3,57,0.00,,---,0.00,VWS V12.07,2013-10-26 13:00:00,
2013-10-26 06:02:00,51.3,36.4,30.08,NW,318,0.0,2.3,56,0.00,,---,0.00,VWS V12.07,2013-10-26 13:02:00,
2013-10-26 06:07:00,51.2,36.4,30.08,NW,318,0.0,2.3,57,0.00,,---,0.00,VWS V12.07,2013-10-26 13:07:00,
2013-10-26 06:12:00,51.2,36.5,30.08,NW,318,0.0,2.3,57,0.00,,---,0.00,VWS V12.07,2013-10-26 13:12:00,
2013-10-26 06:17:00,50.8,36.4,30.08,NW,318,0.0,2.3,58,0.00,,---,0.00,VWS V12.07,2013-10-26 13:17:00,
2013-10-26 06:22:00,50.3,36.2,30.08,NW,318,0.0,2.3,58,0.00,,---,0.00,VWS V12.07,2013-10-26 13:22:00,
2013-10-26 06:27:00,50.0,36.2,30.08,NW,318,0.0,2.3,59,0.00,,---,0.00,VWS V12.07,2013-10-26 13:27:00,
2013-10-26 06:30:00,50.0,36.2,30.08,NW,318,0.0,0.0,59,0.00,,---,0.00,VWS V12.07,2013-10-26 13:30:00,
2013-10-26 06:32:00,50.0,36.3,30.09,NW,318,0.0,2.3,59,0.00,,---,0.00,VWS V12.07,2013-10-26 13:32:00,
2013-10-26 06:37:00,50.0,36.3,30.09,NW,318,0.0,2.3,59,0.00,,---,0.00,VWS V12.07,2013-10-26 13:37:00,
2013-10-26 06:42:00,50.2,36.4,30.09,NW,318,0.0,2.3,59,0.00,,---,0.00,VWS V12.07,2013-10-26 13:42:00,
2013-10-26 06:47:00,50.4,36.4,30.09,NW,318,0.0,0.0,58,0.00,,---,0.00,VWS V12.07,2013-10-26 13:47:00,
2013-10-26 06:52:00,50.4,36.3,30.10,NW,318,0.0,0.0,58,0.00,,---,0.00,VWS V12.07,2013-10-26 13:52:00,
2013-10-26 06:57:00,50.7,36.5,30.10,NW,318,0.0,0.0,58,0.00,,---,0.00,VWS V12.07,2013-10-26 13:57:00,
2013-10-26 07:00:00,50.7,36.5,30.10,NW,318,0.0,0.0,58,0.00,,---,0.00,VWS V12.07,2013-10-26 14:00:00,
2013-10-26 07:02:00,50.6,36.2,30.10,NW,318,0.0,0.0,58,0.00,,---,0.00,VWS V12.07,2013-10-26 14:02:00,
2013-10-26 07:07:00,50.9,36.3,30.10,WNW,300,0.0,4.5,57,0.00,,---,0.00,VWS V12.07,2013-10-26 14:07:00,
2013-10-26 07:12:00,51.1,36.3,30.10,WNW,300,0.0,4.5,57,0.00,,---,0.00,VWS V12.07,2013-10-26 14:12:00,
2013-10-26 07:17:00,51.3,36.4,30.10,WNW,300,0.0,4.5,56,0.00,,---,0.00,VWS V12.07,2013-10-26 14:17:00,
2013-10-26 07:22:00,51.5,36.5,30.10,NW,316,0.0,4.5,56,0.00,,---,0.00,VWS V12.07,2013-10-26 14:22:00,
2013-10-26 07:27:00,51.8,36.6,30.11,NNE,14,0.0,4.5,56,0.00,,---,0.00,VWS V12.07,2013-10-26 14:27:00,
2013-10-26 07:30:00,51.7,36.5,30.11,NNE,14,0.0,4.5,56,0.00,,---,0.00,VWS V12.07,2013-10-26 14:30:00,
2013-10-26 07:32:00,52.1,36.6,30.10,NNE,14,0.0,4.5,55,0.00,,---,0.00,VWS V12.07,2013-10-26 14:32:00,
2013-10-26 07:37:00,52.3,36.6,30.10,NNW,339,0.0,4.5,55,0.00,,---,0.00,VWS V12.07,2013-10-26 14:37:00,
2013-10-26 07:42:00,52.8,36.9,30.11,North,359,0.0,4.8,54,0.00,,---,0.00,VWS V12.07,2013-10-26 14:42:00,
2013-10-26 07:47:00,53.0,36.9,30.11,North,354,0.0,5.7,54,0.00,,---,0.00,VWS V12.07,2013-10-26 14:47:00,
2013-10-26 07:52:00,53.2,36.9,30.12,NW,315,0.0,5.7,54,0.00,,---,0.00,VWS V12.07,2013-10-26 14:52:00,
2013-10-26 07:57:00,53.4,36.8,30.12,WNW,291,0.0,5.7,53,0.00,,---,0.00,VWS V12.07,2013-10-26 14:57:00,
2013-10-26 08:00:00,53.4,36.9,30.12,WNW,291,0.0,5.7,53,0.00,,---,0.00,VWS V12.07,2013-10-26 15:00:00,
2013-10-26 08:02:00,53.8,37.0,30.12,WNW,291,0.0,5.7,53,0.00,,---,0.00,VWS V12.07,2013-10-26 15:02:00,
2013-10-26 08:07:00,54.0,37.1,30.12,WNW,291,0.0,5.7,53,0.00,,---,0.00,VWS V12.07,2013-10-26 15:07:00,
2013-10-26 08:12:00,54.4,37.2,30.12,WNW,291,0.0,5.7,52,0.00,,---,0.00,VWS V12.07,2013-10-26 15:12:00,
2013-10-26 08:17:00,54.8,37.4,30.12,WNW,291,0.0,5.7,52,0.00,,---,0.00,VWS V12.07,2013-10-26 15:17:00,
2013-10-26 08:22:00,55.1,37.4,30.12,WNW,291,0.0,5.7,51,0.00,,---,0.00,VWS V12.07,2013-10-26 15:22:00,
2013-10-26 08:27:00,55.4,37.4,30.13,WNW,291,0.0,5.7,51,0.00,,---,0.00,VWS V12.07,2013-10-26 15:27:00,
2013-10-26 08:30:00,55.5,37.5,30.13,WNW,291,0.0,0.0,51,0.00,,---,0.00,VWS V12.07,2013-10-26 15:30:00,
2013-10-26 08:32:00,56.0,37.6,30.13,WNW,291,0.0,5.7,50,0.00,,---,0.00,VWS V12.07,2013-10-26 15:32:00,
2013-10-26 08:37:00,56.3,37.6,30.13,WNW,291,0.0,5.7,49,0.00,,---,0.00,VWS V12.07,2013-10-26 15:37:00,
2013-10-26 08:42:00,56.8,37.6,30.13,WNW,288,0.0,5.7,48,0.00,,---,0.00,VWS V12.07,2013-10-26 15:42:00,
2013-10-26 08:47:00,57.2,37.7,30.13,WNW,288,0.0,5.7,48,0.00,,---,0.00,VWS V12.07,2013-10-26 15:47:00,
2013-10-26 08:52:00,57.6,37.9,30.13,WNW,288,0.0,5.7,48,0.00,,---,0.00,VWS V12.07,2013-10-26 15:52:00,
2013-10-26 08:57:00,58.1,38.2,30.13,West,278,0.0,5.7,47,0.00,,---,0.00,VWS V12.07,2013-10-26 15:57:00,
2013-10-26 09:00:00,58.0,38.2,30.13,West,278,0.0,5.7,48,0.00,,---,0.00,VWS V12.07,2013-10-26 16:00:00,
2013-10-26 09:02:00,58.6,38.3,30.13,North,1,0.0,5.7,47,0.00,,---,0.00,VWS V12.07,2013-10-26 16:02:00,
2013-10-26 09:07:00,59.2,38.5,30.12,North,1,0.0,5.7,46,0.00,,---,0.00,VWS V12.07,2013-10-26 16:07:00,
2013-10-26 09:12:00,59.6,38.6,30.12,North,1,0.0,5.7,46,0.00,,---,0.00,VWS V12.07,2013-10-26 16:12:00,
2013-10-26 09:17:00,60.2,38.6,30.12,WNW,284,0.0,5.7,45,0.00,,---,0.00,VWS V12.07,2013-10-26 16:17:00,
2013-10-26 09:22:00,60.7,38.7,30.12,West,269,0.0,6.2,44,0.00,,---,0.00,VWS V12.07,2013-10-26 16:22:00,
2013-10-26 09:27:00,61.2,38.8,30.12,North,3,0.0,6.7,44,0.00,,---,0.00,VWS V12.07,2013-10-26 16:27:00,
2013-10-26 09:30:00,61.1,38.8,30.12,North,3,0.0,6.7,44,0.00,,---,0.00,VWS V12.07,2013-10-26 16:30:00,
2013-10-26 09:32:00,61.5,38.9,30.11,North,3,0.0,6.7,43,0.00,,---,0.00,VWS V12.07,2013-10-26 16:32:00,
2013-10-26 09:37:00,62.1,39.1,30.11,NNE,22,0.0,6.7,42,0.00,,---,0.00,VWS V12.07,2013-10-26 16:37:00,
2013-10-26 09:42:00,62.5,39.1,30.11,North,354,0.0,6.7,42,0.00,,---,0.00,VWS V12.07,2013-10-26 16:42:00,
2013-10-26 09:47:00,62.8,39.0,30.11,North,354,0.0,5.9,41,0.00,,---,0.00,VWS V12.07,2013-10-26 16:47:00,
2013-10-26 09:52:00,63.4,39.2,30.10,NE,45,4.2,5.9,41,0.00,,---,0.00,VWS V12.07,2013-10-26 16:52:00,
2013-10-26 09:57:00,63.7,39.0,30.10,NW,314,0.0,6.6,40,0.00,,---,0.00,VWS V12.07,2013-10-26 16:57:00,
2013-10-26 10:00:00,64.0,39.3,30.10,NW,314,0.0,6.6,40,0.00,,---,0.00,VWS V12.07,2013-10-26 17:00:00,
2013-10-26 10:02:00,64.2,39.0,30.10,NW,314,0.0,6.6,39,0.00,,---,0.00,VWS V12.07,2013-10-26 17:02:00,
2013-10-26 10:07:00,64.6,39.2,30.10,NW,314,0.0,6.6,39,0.00,,---,0.00,VWS V12.07,2013-10-26 17:07:00,
2013-10-26 10:12:00,65.1,39.4,30.10,NE,44,0.0,6.6,39,0.00,,---,0.00,VWS V12.07,2013-10-26 17:12:00,
2013-10-26 10:17:00,65.4,39.5,30.10,NNE,25,0.0,6.6,38,0.00,,---,0.00,VWS V12.07,2013-10-26 17:17:00,
2013-10-26 10:22:00,65.6,39.5,30.10,NNE,25,0.0,6.6,38,0.00,,---,0.00,VWS V12.07,2013-10-26 17:22:00,
2013-10-26 10:27:00,66.1,39.6,30.10,NNE,17,0.0,6.6,38,0.00,,---,0.00,VWS V12.07,2013-10-26 17:27:00,
2013-10-26 10:30:00,66.2,39.7,30.10,NNE,17,0.0,5.6,38,0.00,,---,0.00,VWS V12.07,2013-10-26 17:30:00,
2013-10-26 10:32:00,66.4,39.4,30.10,NE,53,0.0,6.6,37,0.00,,---,0.00,VWS V12.07,2013-10-26 17:32:00,
2013-10-26 10:37:00,67.1,39.8,30.10,NE,44,0.0,6.6,37,0.00,,---,0.00,VWS V12.07,2013-10-26 17:37:00,
2013-10-26 10:42:00,67.7,39.9,30.10,NE,44,0.0,6.6,36,0.00,,---,0.00,VWS V12.07,2013-10-26 17:42:00,
2013-10-26 10:47:00,68.1,40.0,30.09,NE,44,0.0,4.9,36,0.00,,---,0.00,VWS V12.07,2013-10-26 17:47:00,
2013-10-26 10:52:00,68.5,39.8,30.09,NE,44,0.0,4.9,35,0.00,,---,0.00,VWS V12.07,2013-10-26 17:52:00,
2013-10-26 10:57:00,69.3,40.1,30.09,NE,44,0.0,4.9,34,0.00,,---,0.00,VWS V12.07,2013-10-26 17:57:00,
2013-10-26 11:00:00,69.1,40.0,30.09,NE,44,0.0,4.9,34,0.00,,---,0.00,VWS V12.07,2013-10-26 18:00:00,
2013-10-26 11:02:00,70.0,40.0,30.08,NE,44,0.0,4.9,34,0.00,,---,0.00,VWS V12.07,2013-10-26 18:02:00,
2013-10-26 11:07:00,70.9,39.8,30.08,WSW,246,0.0,4.9,32,0.00,,---,0.00,VWS V12.07,2013-10-26 18:07:00,
2013-10-26 11:12:00,71.4,39.7,30.08,WSW,246,0.0,4.9,32,0.00,,---,0.00,VWS V12.07,2013-10-26 18:12:00,
2013-10-26 11:17:00,72.0,40.1,30.08,WSW,246,0.0,4.9,31,0.00,,---,0.00,VWS V12.07,2013-10-26 18:17:00,
2013-10-26 11:22:00,73.0,40.1,30.08,WSW,246,0.0,4.9,30,0.00,,---,0.00,VWS V12.07,2013-10-26 18:22:00,
2013-10-26 11:27:00,73.6,39.9,30.08,NNE,18,0.0,4.9,30,0.00,,---,0.00,VWS V12.07,2013-10-26 18:27:00,
2013-10-26 11:30:00,73.6,40.0,30.08,NNE,18,0.0,3.4,30,0.00,,---,0.00,VWS V12.07,2013-10-26 18:30:00,
2013-10-26 11:32:00,74.3,39.4,30.08,West,281,0.0,4.9,28,0.00,,---,0.00,VWS V12.07,2013-10-26 18:32:00,
2013-10-26 11:37:00,74.8,39.6,30.07,West,281,0.0,4.9,28,0.00,,---,0.00,VWS V12.07,2013-10-26 18:37:00,
2013-10-26 11:42:00,75.1,39.3,30.07,West,262,0.0,4.9,28,0.00,,---,0.00,VWS V12.07,2013-10-26 18:42:00,
2013-10-26 11:47:00,75.0,39.1,30.07,WNW,295,0.0,5.0,27,0.00,,---,0.00,VWS V12.07,2013-10-26 18:47:00,
2013-10-26 11:52:00,75.5,39.2,30.06,WNW,302,0.0,5.0,27,0.00,,---,0.00,VWS V12.07,2013-10-26 18:52:00,
2013-10-26 11:57:00,75.6,38.9,30.06,NNW,345,0.0,7.6,27,0.00,,---,0.00,VWS V12.07,2013-10-26 18:57:00,
2013-10-26 12:00:00,75.4,38.8,30.06,NNW,345,0.0,7.6,27,0.00,,---,0.00,VWS V12.07,2013-10-26 19:00:00,
2013-10-26 12:02:00,75.8,38.7,30.05,NNW,345,0.0,7.6,26,0.00,,---,0.00,VWS V12.07,2013-10-26 19:02:00,
2013-10-26 12:07:00,76.0,38.7,30.05,SW,232,0.0,7.6,26,0.00,,---,0.00,VWS V12.07,2013-10-26 19:07:00,
2013-10-26 12:12:00,76.0,38.7,30.05,SW,232,0.0,7.6,26,0.00,,---,0.00,VWS V12.07,2013-10-26 19:12:00,
2013-10-26 12:17:00,76.3,38.5,30.05,SW,232,0.0,7.6,26,0.00,,---,0.00,VWS V12.07,2013-10-26 19:17:00,
2013-10-26 12:22:00,77.0,38.6,30.05,SW,232,0.0,7.6,25,0.00,,---,0.00,VWS V12.07,2013-10-26 19:22:00,
2013-10-26 12:27:00,77.8,38.0,30.04,SW,225,0.0,7.6,24,0.00,,---,0.00,VWS V12.07,2013-10-26 19:27:00,
2013-10-26 12:30:00,77.8,38.3,30.04,SW,228,0.0,6.2,24,0.00,,---,0.00,VWS V12.07,2013-10-26 19:30:00,
2013-10-26 12:32:00,78.2,38.5,30.04,SW,225,0.0,7.6,24,0.00,,---,0.00,VWS V12.07,2013-10-26 19:32:00,
2013-10-26 12:37:00,78.0,38.0,30.04,West,260,0.0,7.6,24,0.00,,---,0.00,VWS V12.07,2013-10-26 19:37:00,
2013-10-26 12:42:00,78.4,38.3,30.03,West,260,0.0,7.6,24,0.00,,---,0.00,VWS V12.07,2013-10-26 19:42:00,
2013-10-26 12:47:00,79.3,38.2,30.03,West,260,0.0,5.2,23,0.00,,---,0.00,VWS V12.07,2013-10-26 19:47:00,
2013-10-26 12:52:00,79.4,37.5,30.03,West,260,0.0,5.2,22,0.00,,---,0.00,VWS V12.07,2013-10-26 19:52:00,
2013-10-26 12:57:00,79.5,37.5,30.02,West,260,0.0,5.2,22,0.00,,---,0.00,VWS V12.07,2013-10-26 19:57:00,
2013-10-26 13:00:00,79.4,37.7,30.02,West,260,0.0,5.2,22,0.00,,---,0.00,VWS V12.07,2013-10-26 20:00:00,
2013-10-26 13:02:00,79.9,37.7,30.02,West,260,0.0,5.2,22,0.00,,---,0.00,VWS V12.07,2013-10-26 20:02:00,
2013-10-26 13:07:00,79.9,37.3,30.02,SSE,160,0.0,7.7,22,0.00,,---,0.00,VWS V12.07,2013-10-26 20:07:00,
2013-10-26 13:12:00,80.2,37.1,30.02,SSE,160,0.0,7.7,21,0.00,,---,0.00,VWS V12.07,2013-10-26 20:12:00,
2013-10-26 13:17:00,79.9,36.9,30.01,SSE,160,0.0,7.7,21,0.00,,---,0.00,VWS V12.07,2013-10-26 20:17:00,
2013-10-26 13:22:00,80.0,36.8,30.01,SSE,160,0.0,7.7,21,0.00,,---,0.00,VWS V12.07,2013-10-26 20:22:00,
2013-10-26 13:27:00,80.2,36.6,30.01,SSE,160,0.0,7.7,21,0.00,,---,0.00,VWS V12.07,2013-10-26 20:27:00,
2013-10-26 13:30:00,80.2,36.9,30.01,SSE,160,0.0,7.7,21,0.00,,---,0.00,VWS V12.07,2013-10-26 20:30:00,
2013-10-26 13:32:00,80.2,36.5,30.01,SSE,160,0.0,7.7,21,0.00,,---,0.00,VWS V12.07,2013-10-26 20:32:00,
2013-10-26 13:37:00,79.8,36.5,30.00,SSE,160,0.0,7.7,21,0.00,,---,0.00,VWS V12.07,2013-10-26 20:37:00,
2013-10-26 13:42:00,79.7,36.8,30.00,SSE,160,0.0,7.7,21,0.00,,---,0.00,VWS V12.07,2013-10-26 20:42:00,
2013-10-26 13:47:00,80.1,36.3,30.00,SSE,160,0.0,4.3,21,0.00,,---,0.00,VWS V12.07,2013-10-26 20:47:00,
2013-10-26 13:52:00,80.1,36.3,30.00,SSE,160,0.0,4.3,21,0.00,,---,0.00,VWS V12.07,2013-10-26 20:52:00,
2013-10-26 13:57:00,80.5,36.2,29.99,SSE,160,0.0,4.3,20,0.00,,---,0.00,VWS V12.07,2013-10-26 20:57:00,
2013-10-26 14:00:00,80.3,36.0,30.00,SSE,160,0.0,4.3,20,0.00,,---,0.00,VWS V12.07,2013-10-26 21:00:00,
2013-10-26 14:02:00,80.6,35.9,29.99,SSE,160,0.0,4.3,20,0.00,,---,0.00,VWS V12.07,2013-10-26 21:02:00,
2013-10-26 14:07:00,80.8,35.8,29.99,SSE,160,0.0,4.3,20,0.00,,---,0.00,VWS V12.07,2013-10-26 21:07:00,
2013-10-26 14:12:00,80.4,35.7,29.99,SSE,160,0.0,4.3,20,0.00,,---,0.00,VWS V12.07,2013-10-26 21:12:00,
2013-10-26 14:17:00,80.1,35.5,29.99,SSE,160,0.0,4.3,20,0.00,,---,0.00,VWS V12.07,2013-10-26 21:17:00,
2013-10-26 14:22:00,80.1,35.6,29.99,SSE,160,0.0,4.3,20,0.00,,---,0.00,VWS V12.07,2013-10-26 21:22:00,
2013-10-26 14:27:00,80.4,35.7,29.99,SSE,160,0.0,4.3,20,0.00,,---,0.00,VWS V12.07,2013-10-26 21:27:00,
2013-10-26 14:30:00,80.4,35.7,29.99,SSE,160,0.0,0.0,20,0.00,,---,0.00,VWS V12.07,2013-10-26 21:30:00,
2013-10-26 14:32:00,80.4,35.7,29.99,SSE,160,0.0,4.3,20,0.00,,---,0.00,VWS V12.07,2013-10-26 21:32:00,
2013-10-26 14:37:00,80.8,35.1,29.99,SSE,160,0.0,4.3,19,0.00,,---,0.00,VWS V12.07,2013-10-26 21:37:00,
2013-10-26 14:42:00,81.1,33.8,29.99,SSE,160,0.0,4.3,18,0.00,,---,0.00,VWS V12.07,2013-10-26 21:42:00,
2013-10-26 14:47:00,81.3,34.3,29.99,SSE,160,0.0,0.0,18,0.00,,---,0.00,VWS V12.07,2013-10-26 21:47:00,
2013-10-26 14:52:00,81.4,33.7,29.99,SSE,160,0.0,0.0,18,0.00,,---,0.00,VWS V12.07,2013-10-26 21:52:00,
2013-10-26 14:57:00,81.4,33.3,29.99,SSE,160,0.0,0.0,18,0.00,,---,0.00,VWS V12.07,2013-10-26 21:57:00,
2013-10-26 15:00:00,81.3,33.4,29.99,SSE,160,0.0,0.0,18,0.00,,---,0.00,VWS V12.07,2013-10-26 22:00:00,
2013-10-26 15:02:00,81.1,32.8,29.99,NNE,30,7.4,9.9,17,0.00,,---,0.00,VWS V12.07,2013-10-26 22:02:00,
2013-10-26 15:07:00,81.3,33.1,29.99,East,93,0.0,9.9,18,0.00,,---,0.00,VWS V12.07,2013-10-26 22:07:00,
2013-10-26 15:12:00,81.5,32.5,29.99,ENE,73,0.0,9.9,17,0.00,,---,0.00,VWS V12.07,2013-10-26 22:12:00,
2013-10-26 15:17:00,81.3,32.1,29.99,ENE,59,0.0,9.9,17,0.00,,---,0.00,VWS V12.07,2013-10-26 22:17:00,
2013-10-26 15:22:00,81.2,31.7,29.99,NNE,24,6.9,9.9,17,0.00,,---,0.00,VWS V12.07,2013-10-26 22:22:00,
2013-10-26 15:27:00,81.2,31.8,29.99,NE,35,5.3,10.8,17,0.00,,---,0.00,VWS V12.07,2013-10-26 22:27:00,
2013-10-26 15:32:00,81.0,31.7,29.99,NE,41,0.0,10.8,17,0.00,,---,0.00,VWS V12.07,2013-10-26 22:32:00,
2013-10-26 15:37:00,80.9,32.0,29.99,NE,52,4.8,10.8,17,0.00,,---,0.00,VWS V12.07,2013-10-26 22:37:00,
2013-10-26 15:42:00,80.8,31.5,29.99,SE,128,0.0,10.8,17,0.00,,---,0.00,VWS V12.07,2013-10-26 22:42:00,
2013-10-26 15:47:00,80.8,31.4,29.99,SE,128,0.0,9.6,17,0.00,,---,0.00,VWS V12.07,2013-10-26 22:47:00,
2013-10-26 15:52:00,80.8,31.4,29.99,ESE,120,0.0,9.6,17,0.00,,---,0.00,VWS V12.07,2013-10-26 22:52:00,
2013-10-26 15:57:00,80.7,31.4,29.99,East,91,0.0,9.6,17,0.00,,---,0.00,VWS V12.07,2013-10-26 22:57:00,
2013-10-26 16:00:00,80.6,31.2,29.98,East,91,0.0,9.6,17,0.00,,---,0.00,VWS V12.07,2013-10-26 23:00:00,
2013-10-26 16:02:00,80.3,30.5,29.98,ENE,65,4.7,9.6,16,0.00,,---,0.00,VWS V12.07,2013-10-26 23:02:00,
2013-10-26 16:07:00,80.4,30.5,29.99,NE,56,7.7,11.5,16,0.00,,---,0.00,VWS V12.07,2013-10-26 23:07:00,
2013-10-26 16:12:00,80.3,30.2,29.99,ENE,62,4.3,11.5,16,0.00,,---,0.00,VWS V12.07,2013-10-26 23:12:00,
2013-10-26 16:17:00,80.2,30.9,29.99,East,79,0.0,11.5,17,0.00,,---,0.00,VWS V12.07,2013-10-26 23:17:00,
2013-10-26 16:22:00,80.1,31.1,29.99,NE,41,0.0,11.5,17,0.00,,---,0.00,VWS V12.07,2013-10-26 23:22:00,
2013-10-26 16:27:00,80.0,30.9,29.98,NE,45,5.7,11.5,17,0.00,,---,0.00,VWS V12.07,2013-10-26 23:27:00,
2013-10-26 16:30:00,80.1,31.1,29.98,ESE,104,0.0,11.5,17,0.00,,---,0.00,VWS V12.07,2013-10-26 23:30:00,
2013-10-26 16:32:00,80.0,30.9,29.99,ENE,72,0.0,11.5,17,0.00,,---,0.00,VWS V12.07,2013-10-26 23:32:00,
2013-10-26 16:37:00,80.1,31.4,29.99,NE,48,3.1,11.5,17,0.00,,---,0.00,VWS V12.07,2013-10-26 23:37:00,
2013-10-26 16:42:00,79.9,31.4,29.99,ENE,68,0.0,11.5,17,0.00,,---,0.00,VWS V12.07,2013-10-26 23:42:00,
2013-10-26 16:47:00,79.4,31.4,29.99,ENE,65,4.8,8.6,17,0.00,,---,0.00,VWS V12.07,2013-10-26 23:47:00,
2013-10-26 16:52:00,79.2,31.8,29.99,East,97,0.0,8.6,18,0.00,,---,0.00,VWS V12.07,2013-10-26 23:52:00,
2013-10-26 16:57:00,79.0,32.5,29.99,East,86,3.2,8.6,18,0.00,,---,0.00,VWS V12.07,2013-10-26 23:57:00,
2013-10-26 17:00:00,79.0,32.5,29.99,NE,44,0.0,8.6,18,0.00,,---,0.00,VWS V12.07,2013-10-27 00:00:00,
2013-10-26 17:02:00,78.5,32.3,29.99,ENE,72,0.0,9.4,19,0.00,,---,0.00,VWS V12.07,2013-10-27 00:02:00,
2013-10-26 17:07:00,78.1,32.8,29.99,East,82,0.0,9.4,19,0.00,,---,0.00,VWS V12.07,2013-10-27 00:07:00,
2013-10-26 17:12:00,77.4,33.1,29.99,East,79,0.0,9.4,20,0.00,,---,0.00,VWS V12.07,2013-10-27 00:12:00,
2013-10-26 17:17:00,76.9,33.4,29.99,East,87,8.8,9.4,20,0.00,,---,0.00,VWS V12.07,2013-10-27 00:17:00,
2013-10-26 17:22:00,76.4,33.3,29.99,East,80,0.0,9.4,21,0.00,,---,0.00,VWS V12.07,2013-10-27 00:22:00,
2013-10-26 17:27:00,75.7,33.3,29.99,ENE,59,0.0,9.4,21,0.00,,---,0.00,VWS V12.07,2013-10-27 00:27:00,
2013-10-26 17:30:00,75.9,33.4,29.99,East,89,3.4,9.4,21,0.00,,---,0.00,VWS V12.07,2013-10-27 00:30:00,
2013-10-26 17:32:00,75.3,33.5,29.99,East,82,2.5,9.4,22,0.00,,---,0.00,VWS V12.07,2013-10-27 00:32:00,
2013-10-26 17:37:00,74.8,33.6,29.99,NNE,30,0.0,9.4,22,0.00,,---,0.00,VWS V12.07,2013-10-27 00:37:00,
2013-10-26 17:42:00,74.2,33.6,30.00,ENE,59,0.0,9.4,23,0.00,,---,0.00,VWS V12.07,2013-10-27 00:42:00,
2013-10-26 17:47:00,73.7,33.7,30.00,NE,45,0.0,5.0,23,0.00,,---,0.00,VWS V12.07,2013-10-27 00:47:00,
2013-10-26 17:52:00,73.2,34.0,30.00,NE,45,0.0,5.0,24,0.00,,---,0.00,VWS V12.07,2013-10-27 00:52:00,
2013-10-26 17:57:00,72.7,34.1,30.00,NE,45,0.0,5.0,24,0.00,,---,0.00,VWS V12.07,2013-10-27 00:57:00,
2013-10-26 18:00:00,72.8,34.0,30.00,NE,45,0.0,5.0,24,0.00,,---,0.00,VWS V12.07,2013-10-27 01:00:00,
2013-10-26 18:02:00,72.2,34.2,30.00,NE,45,0.0,5.0,25,0.00,,---,0.00,VWS V12.07,2013-10-27 01:02:00,
2013-10-26 18:07:00,71.6,34.0,30.00,NE,45,0.0,5.0,25,0.00,,---,0.00,VWS V12.07,2013-10-27 01:07:00,
2013-10-26 18:12:00,71.3,34.2,30.00,NE,45,0.0,5.0,26,0.00,,---,0.00,VWS V12.07,2013-10-27 01:12:00,
2013-10-26 18:17:00,70.8,34.0,30.01,NE,45,0.0,5.0,26,0.00,,---,0.00,VWS V12.07,2013-10-27 01:17:00,
2013-10-26 18:22:00,70.3,34.3,30.01,NE,45,0.0,5.0,26,0.00,,---,0.00,VWS V12.07,2013-10-27 01:22:00,
2013-10-26 18:27:00,70.0,34.3,30.01,NE,45,0.0,5.0,27,0.00,,---,0.00,VWS V12.07,2013-10-27 01:27:00,
2013-10-26 18:30:00,69.8,34.2,30.01,NE,45,0.0,0.0,27,0.00,,---,0.00,VWS V12.07,2013-10-27 01:30:00,
2013-10-26 18:32:00,69.5,34.3,30.02,NE,45,0.0,5.0,27,0.00,,---,0.00,VWS V12.07,2013-10-27 01:32:00,
2013-10-26 18:37:00,68.7,34.1,30.02,NE,45,0.0,5.0,28,0.00,,---,0.00,VWS V12.07,2013-10-27 01:37:00,
2013-10-26 18:42:00,68.4,34.0,30.02,NE,45,0.0,5.0,28,0.00,,---,0.00,VWS V12.07,2013-10-27 01:42:00,
2013-10-26 18:47:00,68.1,34.1,30.02,NE,45,0.0,0.0,28,0.00,,---,0.00,VWS V12.07,2013-10-27 01:47:00,
2013-10-26 18:52:00,68.1,34.5,30.02,NE,45,0.0,0.0,29,0.00,,---,0.00,VWS V12.07,2013-10-27 01:52:00,
2013-10-26 18:57:00,67.8,34.8,30.02,NE,45,0.0,0.0,29,0.00,,---,0.00,VWS V12.07,2013-10-27 01:57:00,
2013-10-26 19:00:00,67.7,34.5,30.02,NE,45,0.0,0.0,29,0.00,,---,0.00,VWS V12.07,2013-10-27 02:00:00,
2013-10-26 19:02:00,67.4,34.8,30.02,NE,45,0.0,0.0,30,0.00,,---,0.00,VWS V12.07,2013-10-27 02:02:00,
2013-10-26 19:07:00,67.6,35.0,30.02,NE,45,0.0,0.0,30,0.00,,---,0.00,VWS V12.07,2013-10-27 02:07:00,
2013-10-26 19:12:00,67.7,35.3,30.02,NE,45,0.0,0.0,30,0.00,,---,0.00,VWS V12.07,2013-10-27 02:12:00,
2013-10-26 19:17:00,68.0,35.3,30.02,West,263,0.0,3.5,30,0.00,,---,0.00,VWS V12.07,2013-10-27 02:17:00,
2013-10-26 19:22:00,67.8,35.1,30.02,West,263,0.0,3.5,30,0.00,,---,0.00,VWS V12.07,2013-10-27 02:22:00,
2013-10-26 19:27:00,67.8,35.1,30.02,West,263,0.0,3.5,30,0.00,,---,0.00,VWS V12.07,2013-10-27 02:27:00,
2013-10-26 19:30:00,67.8,35.1,30.02,West,263,0.0,3.5,30,0.00,,---,0.00,VWS V12.07,2013-10-27 02:30:00,
2013-10-26 19:32:00,67.2,35.1,30.02,West,263,0.0,3.5,30,0.00,,---,0.00,VWS V12.07,2013-10-27 02:32:00,
2013-10-26 19:37:00,66.8,35.1,30.02,West,263,0.0,3.5,31,0.00,,---,0.00,VWS V12.07,2013-10-27 02:37:00,
2013-10-26 19:42:00,66.2,34.9,30.02,West,263,0.0,3.5,31,0.00,,---,0.00,VWS V12.07,2013-10-27 02:42:00,
2013-10-26 19:47:00,65.8,35.1,30.02,West,263,0.0,0.0,32,0.00,,---,0.00,VWS V12.07,2013-10-27 02:47:00,
2013-10-26 19:52:00,65.4,35.1,30.02,West,262,0.0,2.6,32,0.00,,---,0.00,VWS V12.07,2013-10-27 02:52:00,
2013-10-26 19:57:00,65.2,35.3,30.02,West,262,0.0,2.6,33,0.00,,---,0.00,VWS V12.07,2013-10-27 02:57:00,
2013-10-26 20:00:00,65.2,35.2,30.02,West,262,0.0,2.6,33,0.00,,---,0.00,VWS V12.07,2013-10-27 03:00:00,
2013-10-26 20:02:00,65.0,35.7,30.02,West,262,0.0,2.6,34,0.00,,---,0.00,VWS V12.07,2013-10-27 03:02:00,
2013-10-26 20:07:00,64.6,35.8,30.02,West,262,0.0,2.6,34,0.00,,---,0.00,VWS V12.07,2013-10-27 03:07:00,
2013-10-26 20:12:00,64.2,35.5,30.02,West,262,0.0,2.6,34,0.00,,---,0.00,VWS V12.07,2013-10-27 03:12:00,
2013-10-26 20:17:00,64.0,35.9,30.03,West,262,0.0,2.6,35,0.00,,---,0.00,VWS V12.07,2013-10-27 03:17:00,
2013-10-26 20:22:00,63.4,35.7,30.02,West,262,0.0,2.6,36,0.00,,---,0.00,VWS V12.07,2013-10-27 03:22:00,
2013-10-26 20:27:00,63.3,35.7,30.03,WSW,253,0.0,5.9,36,0.00,,---,0.00,VWS V12.07,2013-10-27 03:27:00,
2013-10-26 20:30:00,63.5,35.9,30.02,WSW,253,0.0,5.9,36,0.00,,---,0.00,VWS V12.07,2013-10-27 03:30:00,
2013-10-26 20:32:00,63.3,35.8,30.02,WSW,253,0.0,5.9,36,0.00,,---,0.00,VWS V12.07,2013-10-27 03:32:00,
2013-10-26 20:37:00,63.3,35.8,30.02,WSW,245,0.0,5.9,36,0.00,,---,0.00,VWS V12.07,2013-10-27 03:37:00,
2013-10-26 20:42:00,63.2,36.1,30.02,WSW,245,0.0,5.9,36,0.00,,---,0.00,VWS V12.07,2013-10-27 03:42:00,
2013-10-26 20:47:00,63.0,36.5,30.02,WSW,245,0.0,2.3,37,0.00,,---,0.00,VWS V12.07,2013-10-27 03:47:00,
2013-10-26 20:52:00,62.4,36.5,30.02,WSW,245,0.0,2.3,38,0.00,,---,0.00,VWS V12.07,2013-10-27 03:52:00,
2013-10-26 20:57:00,61.9,36.4,30.02,WSW,245,0.0,2.3,38,0.00,,---,0.00,VWS V12.07,2013-10-27 03:57:00,
2013-10-26 21:00:00,61.8,36.2,30.02,WSW,245,0.0,2.3,38,0.00,,---,0.00,VWS V12.07,2013-10-27 04:00:00,
2013-10-26 21:01:00,61.5,36.1,30.02,WSW,245,0.0,2.3,39,0.00,,---,0.00,VWS V12.07,2013-10-27 04:01:00,
2013-10-26 21:02:00,61.4,36.0,30.02,WSW,245,0.0,2.3,39,0.00,,---,0.00,VWS V12.07,2013-10-27 04:02:00,
2013-10-26 21:07:00,61.3,36.2,30.02,WSW,245,0.0,2.3,39,0.00,,---,0.00,VWS V12.07,2013-10-27 04:07:00,
2013-10-26 21:12:00,61.3,36.4,30.02,WSW,245,0.0,2.3,39,0.00,,---,0.00,VWS V12.07,2013-10-27 04:12:00,
2013-10-26 21:17:00,60.9,36.4,30.02,WSW,245,0.0,2.3,40,0.00,,---,0.00,VWS V12.07,2013-10-27 04:17:00,
2013-10-26 21:22:00,60.4,36.5,30.03,WSW,245,0.0,2.3,41,0.00,,---,0.00,VWS V12.07,2013-10-27 04:22:00,
2013-10-26 21:27:00,59.9,36.5,30.02,WSW,245,0.0,2.3,42,0.00,,---,0.00,VWS V12.07,2013-10-27 04:27:00,
2013-10-26 21:30:00,59.9,36.4,30.02,WSW,245,0.0,0.0,41,0.00,,---,0.00,VWS V12.07,2013-10-27 04:30:00,
2013-10-26 21:32:00,59.5,36.5,30.03,WSW,245,0.0,2.3,42,0.00,,---,0.00,VWS V12.07,2013-10-27 04:32:00,
2013-10-26 21:37:00,59.5,36.7,30.02,WSW,245,0.0,2.3,42,0.00,,---,0.00,VWS V12.07,2013-10-27 04:37:00,
2013-10-26 21:42:00,59.3,36.7,30.02,WSW,245,0.0,2.3,43,0.00,,---,0.00,VWS V12.07,2013-10-27 04:42:00,
2013-10-26 21:47:00,59.2,36.8,30.02,WSW,245,0.0,0.0,43,0.00,,---,0.00,VWS V12.07,2013-10-27 04:47:00,
2013-10-26 21:52:00,58.9,36.7,30.02,WSW,245,0.0,0.0,43,0.00,,---,0.00,VWS V12.07,2013-10-27 04:52:00,
2013-10-26 21:57:00,59.0,36.8,30.02,WSW,245,0.0,0.0,44,0.00,,---,0.00,VWS V12.07,2013-10-27 04:57:00,
2013-10-26 22:00:00,59.0,36.8,30.02,WSW,245,0.0,0.0,44,0.00,,---,0.00,VWS V12.07,2013-10-27 05:00:00,
2013-10-26 22:02:00,58.9,36.8,30.02,WSW,245,0.0,0.0,44,0.00,,---,0.00,VWS V12.07,2013-10-27 05:02:00,
2013-10-26 22:07:00,58.7,36.9,30.02,WSW,245,0.0,0.0,44,0.00,,---,0.00,VWS V12.07,2013-10-27 05:07:00,
2013-10-26 22:12:00,58.3,36.7,30.02,WSW,245,0.0,0.0,44,0.00,,---,0.00,VWS V12.07,2013-10-27 05:12:00,
2013-10-26 22:17:00,58.1,37.0,30.02,WSW,245,0.0,0.0,45,0.00,,---,0.00,VWS V12.07,2013-10-27 05:17:00,
2013-10-26 22:22:00,57.9,36.9,30.02,WSW,245,0.0,0.0,45,0.00,,---,0.00,VWS V12.07,2013-10-27 05:22:00,
2013-10-26 22:27:00,57.5,36.9,30.02,WSW,245,0.0,0.0,46,0.00,,---,0.00,VWS V12.07,2013-10-27 05:27:00,
2013-10-26 22:30:00,57.6,36.9,30.02,WSW,245,0.0,0.0,46,0.00,,---,0.00,VWS V12.07,2013-10-27 05:30:00,
2013-10-26 22:32:00,57.3,36.9,30.02,WSW,245,0.0,0.0,46,0.00,,---,0.00,VWS V12.07,2013-10-27 05:32:00,
2013-10-26 22:37:00,57.1,37.0,30.02,WSW,245,0.0,0.0,47,0.00,,---,0.00,VWS V12.07,2013-10-27 05:37:00,
2013-10-26 22:42:00,57.1,37.0,30.02,WSW,245,0.0,0.0,47,0.00,,---,0.00,VWS V12.07,2013-10-27 05:42:00,
2013-10-26 22:47:00,57.2,37.1,30.02,WSW,245,0.0,0.0,47,0.00,,---,0.00,VWS V12.07,2013-10-27 05:47:00,
2013-10-26 22:52:00,57.3,37.3,30.02,WSW,245,0.0,0.0,47,0.00,,---,0.00,VWS V12.07,2013-10-27 05:52:00,
2013-10-26 22:57:00,57.1,37.3,30.01,WSW,245,0.0,0.0,48,0.00,,---,0.00,VWS V12.07,2013-10-27 05:57:00,
2013-10-26 23:00:00,57.1,37.2,30.01,WSW,245,0.0,0.0,47,0.00,,---,0.00,VWS V12.07,2013-10-27 06:00:00,
2013-10-26 23:02:00,57.0,37.4,30.01,WSW,245,0.0,0.0,48,0.00,,---,0.00,VWS V12.07,2013-10-27 06:02:00,
2013-10-26 23:07:00,57.0,37.4,30.01,WSW,245,0.0,0.0,48,0.00,,---,0.00,VWS V12.07,2013-10-27 06:07:00,
2013-10-26 23:12:00,56.9,37.4,30.01,WSW,245,0.0,0.0,48,0.00,,---,0.00,VWS V12.07,2013-10-27 06:12:00,
2013-10-26 23:17:00,56.8,37.3,30.01,WSW,245,0.0,0.0,48,0.00,,---,0.00,VWS V12.07,2013-10-27 06:17:00,
2013-10-26 23:22:00,57.0,37.3,30.01,WSW,245,0.0,0.0,48,0.00,,---,0.00,VWS V12.07,2013-10-27 06:22:00,
2013-10-26 23:27:00,57.4,37.5,30.01,WSW,245,0.0,0.0,47,0.00,,---,0.00,VWS V12.07,2013-10-27 06:27:00,
2013-10-26 23:30:00,57.4,37.5,30.01,WSW,245,0.0,0.0,47,0.00,,---,0.00,VWS V12.07,2013-10-27 06:30:00,
2013-10-26 23:32:00,57.8,37.6,30.01,WSW,245,0.0,0.0,47,0.00,,---,0.00,VWS V12.07,2013-10-27 06:32:00,
2013-10-26 23:37:00,58.0,37.5,30.00,WSW,245,0.0,0.0,46,0.00,,---,0.00,VWS V12.07,2013-10-27 06:37:00,
2013-10-26 23:42:00,58.4,37.7,30.00,WSW,245,0.0,0.0,46,0.00,,---,0.00,VWS V12.07,2013-10-27 06:42:00,
2013-10-26 23:47:00,58.4,37.7,30.00,WSW,245,0.0,0.0,46,0.00,,---,0.00,VWS V12.07,2013-10-27 06:47:00,
2013-10-26 23:52:00,58.4,37.7,30.00,WSW,245,0.0,0.0,46,0.00,,---,0.00,VWS V12.07,2013-10-27 06:52:00,
2013-10-26 23:57:00,58.3,37.7,30.01,WSW,245,0.0,0.0,46,0.00,,---,0.00,VWS V12.07,2013-10-27 06:57:00,